sensor_id;sensor_type;location;lat;lon;timestamp;temperature;humidity
44731;DHT22;30458;47.448;19.032;2024-01-11T00:06:52;-1.50;99.90
44731;DHT22;30458;47.448;19.032;2024-01-11T00:16:53;-1.70;99.90
44731;DHT22;30458;47.448;19.032;2024-01-11T00:26:54;-1.80;99.90
44731;DHT22;30458;47.448;19.032;2024-01-11T00:36:54;-1.80;99.90
44731;DHT22;30458;47.448;19.032;2024-01-11T00:46:56;-1.60;99.90
44731;DHT22;30458;47.448;19.032;2024-01-11T00:56:56;-1.40;99.90
44731;DHT22;30458;47.448;19.032;2024-01-11T01:06:57;-1.60;99.90
44731;DHT22;30458;47.448;19.032;2024-01-11T01:16:58;-1.60;99.90
44731;DHT22;30458;47.448;19.032;2024-01-11T01:27:01;-1.80;99.90
44731;DHT22;30458;47.448;19.032;2024-01-11T01:37:02;-1.70;99.90
44731;DHT22;30458;47.448;19.032;2024-01-11T01:47:04;-1.90;99.90
44731;DHT22;30458;47.448;19.032;2024-01-11T01:57:08;-2.20;99.90
44731;DHT22;30458;47.448;19.032;2024-01-11T02:07:10;-2.20;99.90
44731;DHT22;30458;47.448;19.032;2024-01-11T02:17:11;-2.40;99.90
44731;DHT22;30458;47.448;19.032;2024-01-11T02:27:12;-2.50;99.90
44731;DHT22;30458;47.448;19.032;2024-01-11T02:37:13;-2.50;99.90
44731;DHT22;30458;47.448;19.032;2024-01-11T02:47:14;-2.40;99.90
44731;DHT22;30458;47.448;19.032;2024-01-11T02:57:17;-2.50;99.90
44731;DHT22;30458;47.448;19.032;2024-01-11T03:07:20;-2.40;99.90
44731;DHT22;30458;47.448;19.032;2024-01-11T03:17:26;-2.50;99.90
44731;DHT22;30458;47.448;19.032;2024-01-11T03:27:26;-2.60;99.90
44731;DHT22;30458;47.448;19.032;2024-01-11T03:37:27;-2.60;99.90
44731;DHT22;30458;47.448;19.032;2024-01-11T03:47:28;-2.30;99.90
44731;DHT22;30458;47.448;19.032;2024-01-11T03:57:31;-2.20;99.90
44731;DHT22;30458;47.448;19.032;2024-01-11T04:07:32;-2.10;99.90
44731;DHT22;30458;47.448;19.032;2024-01-11T04:17:33;-2.20;99.90
44731;DHT22;30458;47.448;19.032;2024-01-11T04:27:34;-2.40;99.90
44731;DHT22;30458;47.448;19.032;2024-01-11T04:37:39;-2.40;99.90
44731;DHT22;30458;47.448;19.032;2024-01-11T04:47:42;-2.50;99.90
44731;DHT22;30458;47.448;19.032;2024-01-11T04:57:45;-2.40;99.90
44731;DHT22;30458;47.448;19.032;2024-01-11T05:07:46;-2.40;99.90
44731;DHT22;30458;47.448;19.032;2024-01-11T05:17:49;-2.50;99.90
44731;DHT22;30458;47.448;19.032;2024-01-11T05:27:50;-2.60;99.90
44731;DHT22;30458;47.448;19.032;2024-01-11T05:37:51;-2.90;99.90
44731;DHT22;30458;47.448;19.032;2024-01-11T05:47:54;-2.90;99.90
44731;DHT22;30458;47.448;19.032;2024-01-11T05:57:57;-2.80;99.90
44731;DHT22;30458;47.448;19.032;2024-01-11T06:08:00;-2.80;99.90
44731;DHT22;30458;47.448;19.032;2024-01-11T06:18:01;-2.80;99.90
44731;DHT22;30458;47.448;19.032;2024-01-11T06:28:03;-2.70;99.90
44731;DHT22;30458;47.448;19.032;2024-01-11T06:38:07;-2.60;99.90
44731;DHT22;30458;47.448;19.032;2024-01-11T06:48:08;-2.50;99.90
44731;DHT22;30458;47.448;19.032;2024-01-11T06:58:09;-2.30;99.90
44731;DHT22;30458;47.448;19.032;2024-01-11T07:08:09;-2.20;99.90
44731;DHT22;30458;47.448;19.032;2024-01-11T07:18:17;-2.00;99.90
44731;DHT22;30458;47.448;19.032;2024-01-11T07:28:20;-1.90;99.90
44731;DHT22;30458;47.448;19.032;2024-01-11T07:38:25;-1.70;99.90
44731;DHT22;30458;47.448;19.032;2024-01-11T07:48:28;3.10;99.90
44731;DHT22;30458;47.448;19.032;2024-01-11T07:58:31;9.10;88.60
44731;DHT22;30458;47.448;19.032;2024-01-11T08:08:32;13.10;73.10
44731;DHT22;30458;47.448;19.032;2024-01-11T08:18:36;15.90;63.90
44731;DHT22;30458;47.448;19.032;2024-01-11T08:28:37;18.50;58.10
44731;DHT22;30458;47.448;19.032;2024-01-11T08:38:39;19.70;52.80
44731;DHT22;30458;47.448;19.032;2024-01-11T08:48:42;20.60;52.70
44731;DHT22;30458;47.448;19.032;2024-01-11T08:58:43;21.00;50.60
44731;DHT22;30458;47.448;19.032;2024-01-11T09:08:44;25.00;47.70
44731;DHT22;30458;47.448;19.032;2024-01-11T09:18:45;23.90;45.50
44731;DHT22;30458;47.448;19.032;2024-01-11T09:28:45;23.00;45.50
44731;DHT22;30458;47.448;19.032;2024-01-11T09:38:46;22.10;45.80
44731;DHT22;30458;47.448;19.032;2024-01-11T09:48:49;18.40;49.50
44731;DHT22;30458;47.448;19.032;2024-01-11T09:58:51;12.90;53.50
44731;DHT22;30458;47.448;19.032;2024-01-11T10:08:56;7.90;60.50
44731;DHT22;30458;47.448;19.032;2024-01-11T10:18:57;5.40;66.40
44731;DHT22;30458;47.448;19.032;2024-01-11T10:28:59;3.90;71.70
44731;DHT22;30458;47.448;19.032;2024-01-11T10:39:02;3.60;73.50
44731;DHT22;30458;47.448;19.032;2024-01-11T10:49:08;3.20;74.70
44731;DHT22;30458;47.448;19.032;2024-01-11T10:59:14;3.10;78.10
44731;DHT22;30458;47.448;19.032;2024-01-11T11:09:16;3.10;84.50
44731;DHT22;30458;47.448;19.032;2024-01-11T11:19:20;3.10;88.40
44731;DHT22;30458;47.448;19.032;2024-01-11T11:29:21;3.10;90.20
44731;DHT22;30458;47.448;19.032;2024-01-11T11:39:21;3.10;92.00
44731;DHT22;30458;47.448;19.032;2024-01-11T11:49:56;3.30;92.20
44731;DHT22;30458;47.448;19.032;2024-01-11T11:59:59;3.40;92.40
44731;DHT22;30458;47.448;19.032;2024-01-11T12:10:00;3.40;92.00
44731;DHT22;30458;47.448;19.032;2024-01-11T12:20:05;3.20;92.90
44731;DHT22;30458;47.448;19.032;2024-01-11T12:30:06;3.60;92.80
44731;DHT22;30458;47.448;19.032;2024-01-11T12:40:12;3.70;92.60
44731;DHT22;30458;47.448;19.032;2024-01-11T12:50:20;3.90;91.90
44731;DHT22;30458;47.448;19.032;2024-01-11T13:00:22;3.90;91.10
44731;DHT22;30458;47.448;19.032;2024-01-11T13:10:25;4.00;90.70
44731;DHT22;30458;47.448;19.032;2024-01-11T13:20:30;3.90;90.40
44731;DHT22;30458;47.448;19.032;2024-01-11T13:30:32;3.90;90.10
44731;DHT22;30458;47.448;19.032;2024-01-11T13:40:33;4.00;88.90
44731;DHT22;30458;47.448;19.032;2024-01-11T13:50:34;3.90;89.90
44731;DHT22;30458;47.448;19.032;2024-01-11T14:00:37;3.60;90.40
44731;DHT22;30458;47.448;19.032;2024-01-11T14:10:40;3.50;91.10
44731;DHT22;30458;47.448;19.032;2024-01-11T14:20:41;3.50;91.50
44731;DHT22;30458;47.448;19.032;2024-01-11T14:30:45;3.40;91.80
44731;DHT22;30458;47.448;19.032;2024-01-11T14:40:46;3.30;91.80
44731;DHT22;30458;47.448;19.032;2024-01-11T14:50:47;3.40;92.20
44731;DHT22;30458;47.448;19.032;2024-01-11T15:00:48;3.30;92.30
44731;DHT22;30458;47.448;19.032;2024-01-11T15:10:49;3.20;92.40
44731;DHT22;30458;47.448;19.032;2024-01-11T15:20:54;3.00;92.60
44731;DHT22;30458;47.448;19.032;2024-01-11T15:30:55;2.90;92.50
44731;DHT22;30458;47.448;19.032;2024-01-11T15:40:58;2.80;93.30
44731;DHT22;30458;47.448;19.032;2024-01-11T15:50:59;2.60;93.80
44731;DHT22;30458;47.448;19.032;2024-01-11T16:00:59;2.60;94.70
44731;DHT22;30458;47.448;19.032;2024-01-11T16:11:00;2.60;95.30
44731;DHT22;30458;47.448;19.032;2024-01-11T16:21:04;2.50;96.10
44731;DHT22;30458;47.448;19.032;2024-01-11T16:31:05;2.10;97.30
44731;DHT22;30458;47.448;19.032;2024-01-11T16:41:11;2.10;96.50
44731;DHT22;30458;47.448;19.032;2024-01-11T16:51:12;2.10;94.50
44731;DHT22;30458;47.448;19.032;2024-01-11T17:01:13;2.20;94.20
44731;DHT22;30458;47.448;19.032;2024-01-11T17:11:14;2.20;93.90
44731;DHT22;30458;47.448;19.032;2024-01-11T17:21:15;2.10;94.10
44731;DHT22;30458;47.448;19.032;2024-01-11T17:31:15;2.00;94.50
44731;DHT22;30458;47.448;19.032;2024-01-11T17:41:21;1.70;95.40
44731;DHT22;30458;47.448;19.032;2024-01-11T17:51:24;1.50;95.70
44731;DHT22;30458;47.448;19.032;2024-01-11T18:01:31;1.50;95.30
44731;DHT22;30458;47.448;19.032;2024-01-11T18:11:32;1.60;95.50
44731;DHT22;30458;47.448;19.032;2024-01-11T18:21:36;1.50;95.40
44731;DHT22;30458;47.448;19.032;2024-01-11T18:31:39;1.50;95.70
44731;DHT22;30458;47.448;19.032;2024-01-11T18:41:42;1.70;95.50
44731;DHT22;30458;47.448;19.032;2024-01-11T18:51:43;1.80;94.70
44731;DHT22;30458;47.448;19.032;2024-01-11T19:01:47;1.90;94.80
44731;DHT22;30458;47.448;19.032;2024-01-11T19:11:51;1.90;95.10
44731;DHT22;30458;47.448;19.032;2024-01-11T19:21:56;1.90;94.90
44731;DHT22;30458;47.448;19.032;2024-01-11T19:32:00;2.10;94.30
44731;DHT22;30458;47.448;19.032;2024-01-11T19:42:03;2.40;94.10
44731;DHT22;30458;47.448;19.032;2024-01-11T19:52:07;2.60;93.20
44731;DHT22;30458;47.448;19.032;2024-01-11T20:02:10;2.50;92.40
44731;DHT22;30458;47.448;19.032;2024-01-11T20:12:16;2.70;91.30
44731;DHT22;30458;47.448;19.032;2024-01-11T20:22:20;2.70;91.80
44731;DHT22;30458;47.448;19.032;2024-01-11T20:32:21;2.80;91.90
44731;DHT22;30458;47.448;19.032;2024-01-11T20:42:24;3.00;92.00
44731;DHT22;30458;47.448;19.032;2024-01-11T20:52:31;3.10;91.80
44731;DHT22;30458;47.448;19.032;2024-01-11T21:02:31;3.10;91.40
44731;DHT22;30458;47.448;19.032;2024-01-11T21:12:33;3.00;91.40
44731;DHT22;30458;47.448;19.032;2024-01-11T21:22:34;3.20;91.90
44731;DHT22;30458;47.448;19.032;2024-01-11T21:32:40;3.30;91.40
44731;DHT22;30458;47.448;19.032;2024-01-11T21:42:41;3.20;91.70
44731;DHT22;30458;47.448;19.032;2024-01-11T21:52:44;2.90;92.40
44731;DHT22;30458;47.448;19.032;2024-01-11T22:02:48;2.90;92.70
44731;DHT22;30458;47.448;19.032;2024-01-11T22:12:52;2.70;93.10
44731;DHT22;30458;47.448;19.032;2024-01-11T22:22:57;2.70;93.10
44731;DHT22;30458;47.448;19.032;2024-01-11T22:32:58;2.70;93.70
44731;DHT22;30458;47.448;19.032;2024-01-11T22:43:01;2.60;93.90
44731;DHT22;30458;47.448;19.032;2024-01-11T22:53:02;2.50;94.40
44731;DHT22;30458;47.448;19.032;2024-01-11T23:03:07;2.30;94.80
44731;DHT22;30458;47.448;19.032;2024-01-11T23:13:10;1.90;95.60
44731;DHT22;30458;47.448;19.032;2024-01-11T23:23:11;1.80;96.00
44731;DHT22;30458;47.448;19.032;2024-01-11T23:33:14;2.00;95.90
44731;DHT22;30458;47.448;19.032;2024-01-11T23:43:16;2.10;95.90
44731;DHT22;30458;47.448;19.032;2024-01-11T23:53:20;1.90;96.30
